createdAt,value
2023-03-02T00:01:10.284Z,97180.56
2023-03-02T00:03:41.434Z,97109.16
2023-03-02T00:06:10.496Z,97070.13
2023-03-02T00:08:39.839Z,97087.59
2023-03-02T00:11:07.774Z,97060.47
2023-03-02T00:13:38.210Z,97048.31
2023-03-02T00:16:06.777Z,97026.28
2023-03-02T00:18:34.662Z,97007.53
2023-03-02T00:21:03.836Z,96957.66
2023-03-02T00:23:31.591Z,96942.91
2023-03-02T00:25:59.377Z,96885.75
2023-03-02T00:28:27.465Z,96839.75
2023-03-02T00:30:55.309Z,96814.97
2023-03-02T00:33:23.158Z,96777.69
2023-03-02T00:35:51.171Z,96787.88
2023-03-02T00:38:20.320Z,96725.13
2023-03-02T00:40:49.009Z,96674.78
2023-03-02T00:43:17.318Z,96624.41
2023-03-02T00:45:45.093Z,96617.53
2023-03-02T00:48:12.923Z,96603.94
2023-03-02T00:50:41.951Z,96606.69
2023-03-02T00:53:10.971Z,96603.78
2023-03-02T00:55:40.123Z,96571.63
2023-03-02T00:58:07.850Z,96593.75
2023-03-02T01:00:36.404Z,96581.94
2023-03-02T01:03:04.588Z,96581.81
2023-03-02T01:05:36.724Z,96527.66
2023-03-02T01:08:04.869Z,96489.19
2023-03-02T01:10:33.213Z,96456.22
2023-03-02T01:13:02.493Z,96451.00
2023-03-02T01:15:30.480Z,96427.66
2023-03-02T01:17:58.184Z,96429.69
2023-03-02T01:20:26.072Z,96446.88
2023-03-02T01:22:54.410Z,96385.31
2023-03-02T01:25:22.200Z,96342.41
2023-03-02T01:27:50.140Z,96304.91
2023-03-02T01:30:19.519Z,96248.94
2023-03-02T01:32:47.701Z,96226.16
2023-03-02T01:35:15.551Z,96236.88
2023-03-02T01:37:43.566Z,96218.47
2023-03-02T01:40:14.530Z,96199.81
2023-03-02T01:42:48.528Z,96165.16
2023-03-02T01:45:55.652Z,96127.72
2023-03-02T01:48:29.084Z,96098.91
2023-03-02T01:50:58.071Z,96191.31
2023-03-02T01:53:30.431Z,96209.00
2023-03-02T01:55:59.815Z,96191.31
2023-03-02T01:58:29.764Z,96191.31
2023-03-02T02:00:59.534Z,96253.03
2023-03-02T02:03:29.873Z,96253.19
2023-03-02T02:06:07.202Z,96191.63
2023-03-02T02:08:35.200Z,96139.84
2023-03-02T02:11:03.151Z,96165.81
2023-03-02T02:13:31.457Z,96157.47
2023-03-02T02:16:00.563Z,96116.72
2023-03-02T02:18:28.545Z,96097.78
2023-03-02T02:20:57.519Z,96137.03
2023-03-02T02:23:34.701Z,96127.56
2023-03-02T02:26:18.564Z,96101.38
2023-03-02T02:28:52.671Z,96116.72
2023-03-02T02:31:26.751Z,96115.09
2023-03-02T02:33:58.338Z,96161.56
2023-03-02T02:36:33.896Z,96199.00
2023-03-02T02:39:05.393Z,96187.06
2023-03-02T02:41:37.862Z,96224.50
2023-03-02T02:44:06.110Z,96226.03
2023-03-02T02:46:34.877Z,96231.25
2023-03-02T02:49:10.037Z,96229.59
2023-03-02T02:51:38.878Z,96184.47
2023-03-02T02:54:06.866Z,96156.50
2023-03-02T02:56:38.117Z,96156.66
2023-03-02T02:59:08.884Z,96162.84
2023-03-02T03:01:36.949Z,96205.56
2023-03-02T03:04:07.257Z,96275.28
2023-03-02T03:06:42.494Z,96249.94
2023-03-02T03:09:12.091Z,96254.97
2023-03-02T03:11:43.688Z,96282.97
2023-03-02T03:14:14.258Z,96294.75
2023-03-02T03:16:44.262Z,96309.00
2023-03-02T03:19:18.435Z,96285.41
2023-03-02T03:21:46.467Z,96290.50
2023-03-02T03:24:14.261Z,96343.88
2023-03-02T03:26:43.756Z,96367.78
2023-03-02T03:29:12.315Z,96358.22
2023-03-02T03:31:40.457Z,96354.19
2023-03-02T03:34:08.918Z,96355.47
2023-03-02T03:36:37.612Z,96348.72
2023-03-02T03:39:07.179Z,96305.72
2023-03-02T03:41:35.026Z,96315.88
2023-03-02T03:44:05.309Z,96311.75
2023-03-02T03:46:33.616Z,96291.31
2023-03-02T03:49:02.025Z,96248.41
2023-03-02T03:51:30.023Z,96248.13
2023-03-02T03:54:00.896Z,96244.84
2023-03-02T03:56:29.910Z,96253.19
2023-03-02T03:59:06.335Z,96244.84
2023-03-02T04:01:37.156Z,96241.41
2023-03-02T04:04:07.206Z,96241.53
2023-03-02T04:06:35.253Z,96298.03
2023-03-02T04:09:05.146Z,96282.97
2023-03-02T04:11:33.692Z,96284.91
2023-03-02T04:14:01.598Z,96244.00
2023-03-02T04:16:31.042Z,96249.22
2023-03-02T04:19:01.456Z,96212.56
2023-03-02T04:21:29.774Z,96191.63
2023-03-02T04:23:57.786Z,96135.41
2023-03-02T04:26:26.857Z,96103.84
2023-03-02T04:28:54.760Z,96176.25
2023-03-02T04:31:22.595Z,96143.06
2023-03-02T04:33:50.545Z,96110.16
2023-03-02T04:36:20.202Z,96093.03
2023-03-02T04:38:48.339Z,96098.09
2023-03-02T04:41:16.518Z,96060.16
2023-03-02T04:43:44.508Z,96040.56
2023-03-02T04:46:16.491Z,95983.03
2023-03-02T04:48:44.271Z,96006.56
2023-03-02T04:51:18.133Z,95983.03
2023-03-02T04:53:47.282Z,95954.94
2023-03-02T04:56:15.182Z,95928.00
2023-03-02T04:58:42.943Z,95912.78
2023-03-02T05:01:10.868Z,95886.66
2023-03-02T05:03:38.690Z,95897.59
2023-03-02T05:06:07.126Z,95940.88
2023-03-02T05:08:35.353Z,95953.47
2023-03-02T05:11:05.244Z,95910.16
2023-03-02T05:13:33.438Z,95860.22
2023-03-02T05:16:01.574Z,95875.56
2023-03-02T05:18:29.990Z,95847.94
2023-03-02T05:20:57.894Z,95845.03
2023-03-02T05:23:27.228Z,95823.31
2023-03-02T05:25:56.722Z,95795.25
2023-03-02T05:28:27.662Z,95771.59
2023-03-02T05:30:55.789Z,95799.63
2023-03-02T05:33:23.634Z,95773.38
2023-03-02T05:35:51.478Z,95780.22
2023-03-02T05:38:19.263Z,95751.19
2023-03-02T05:40:47.492Z,95768.63
2023-03-02T05:43:18.429Z,95747.94
2023-03-02T05:45:48.276Z,95692.31
2023-03-02T05:48:16.628Z,95760.66
2023-03-02T05:50:44.496Z,95772.69
2023-03-02T05:53:12.286Z,95844.22
2023-03-02T05:55:40.162Z,95848.91
2023-03-02T05:58:09.772Z,95841.25
2023-03-02T06:00:37.559Z,95838.34
2023-03-02T06:03:06.891Z,95829.03
2023-03-02T06:05:35.448Z,95779.19
2023-03-02T06:08:03.441Z,95770.41
2023-03-02T06:10:31.403Z,95774.50
2023-03-02T06:13:00.063Z,95768.47
2023-03-02T06:15:29.711Z,95787.88
2023-03-02T06:17:57.680Z,95831.81
2023-03-02T06:20:27.485Z,95830.84
2023-03-02T06:22:55.676Z,95825.94
2023-03-02T06:25:25.623Z,95887.63
2023-03-02T06:27:53.963Z,95934.03
2023-03-02T06:30:24.026Z,96023.84
2023-03-02T06:32:52.352Z,96125.53
2023-03-02T06:35:20.487Z,96281.75
2023-03-02T06:37:49.643Z,96342.53
2023-03-02T06:40:17.821Z,96365.75
2023-03-02T06:42:45.648Z,96395.53
2023-03-02T06:45:13.718Z,96389.78
2023-03-02T06:47:41.989Z,96507.63
2023-03-02T06:50:11.303Z,96509.94
2023-03-02T06:52:39.070Z,96488.13
2023-03-02T06:55:09.569Z,96446.31
2023-03-02T06:57:37.338Z,96433.56
2023-03-02T07:00:10.025Z,96432.66
2023-03-02T07:02:38.700Z,96507.63
2023-03-02T07:05:07.803Z,96559.41
2023-03-02T07:07:35.720Z,96636.00
2023-03-02T07:10:03.547Z,96777.25
2023-03-02T07:12:32.694Z,96979.00
2023-03-02T07:15:00.714Z,97266.69
2023-03-02T07:17:28.488Z,97499.72
2023-03-02T07:19:56.315Z,97626.38
2023-03-02T07:22:24.102Z,97739.69
2023-03-02T07:24:51.853Z,97802.84
2023-03-02T07:27:19.607Z,97955.50
2023-03-02T07:29:48.849Z,98207.66
2023-03-02T07:32:16.784Z,98512.91
2023-03-02T07:34:44.647Z,98644.69
2023-03-02T07:37:12.593Z,98933.41
2023-03-02T07:39:40.309Z,99224.56
2023-03-02T07:42:09.061Z,99393.91
2023-03-02T07:44:36.922Z,99388.84
2023-03-02T07:47:06.451Z,99314.50
2023-03-02T07:49:35.347Z,99587.06
2023-03-02T07:52:03.479Z,99782.06
2023-03-02T07:54:31.526Z,100067.88
2023-03-02T07:56:59.338Z,100254.69
2023-03-02T07:59:29.546Z,100292.03
2023-03-02T08:01:57.646Z,100240.91
2023-03-02T08:04:27.187Z,100228.69
2023-03-02T08:06:55.002Z,100382.69
2023-03-02T08:09:22.831Z,100366.97
2023-03-02T08:11:50.616Z,100122.69
2023-03-02T08:14:18.504Z,100075.06
2023-03-02T08:16:46.286Z,99916.19
2023-03-02T08:19:14.066Z,99778.19
2023-03-02T08:21:43.225Z,99899.06
2023-03-02T08:24:11.540Z,100009.88
2023-03-02T08:26:39.602Z,99827.63
2023-03-02T08:29:07.907Z,99802.66
2023-03-02T08:31:36.207Z,99665.59
2023-03-02T08:34:04.401Z,99793.13
2023-03-02T08:36:32.615Z,100149.75
2023-03-02T08:39:02.118Z,100595.41
2023-03-02T08:41:30.640Z,100848.19
2023-03-02T08:43:58.805Z,100780.16
2023-03-02T08:46:26.603Z,100711.38
2023-03-02T08:48:54.434Z,100663.47
2023-03-02T08:51:24.434Z,100562.34
2023-03-02T08:53:55.102Z,100628.59
2023-03-02T08:56:27.020Z,100666.13
2023-03-02T08:58:56.948Z,100734.16
2023-03-02T09:01:26.704Z,100961.03
2023-03-02T09:03:54.509Z,101190.66
2023-03-02T09:06:22.800Z,101264.13
2023-03-02T09:08:50.797Z,101505.00
2023-03-02T09:11:18.924Z,101698.63
2023-03-02T09:13:48.187Z,101664.50
2023-03-02T09:16:16.544Z,102008.59
2023-03-02T09:18:44.737Z,102277.56
2023-03-02T09:21:12.596Z,102367.41
2023-03-02T09:23:40.471Z,102436.91
2023-03-02T09:26:08.561Z,102410.69
2023-03-02T09:28:37.591Z,102623.78
2023-03-02T09:31:08.895Z,102692.50
2023-03-02T09:33:37.231Z,102760.53
2023-03-02T09:36:07.324Z,103058.06
2023-03-02T09:38:35.313Z,102867.31
2023-03-02T09:41:34.292Z,103014.03
2023-03-02T09:44:08.126Z,103066.13
2023-03-02T09:46:45.319Z,102790.63
2023-03-02T09:49:26.965Z,102801.19
2023-03-02T09:52:08.717Z,102815.38
2023-03-02T09:54:38.047Z,102847.06
2023-03-02T09:57:21.829Z,103279.19
2023-03-02T09:59:57.241Z,103464.13
2023-03-02T10:02:29.793Z,103791.34
2023-03-02T10:05:00.799Z,103887.09
2023-03-02T10:07:31.040Z,104246.22
2023-03-02T10:10:20.190Z,104283.56
2023-03-02T10:13:02.039Z,104184.91
2023-03-02T10:15:39.140Z,104425.09
2023-03-02T10:18:18.647Z,104247.19
2023-03-02T10:20:52.893Z,104382.41
2023-03-02T10:23:37.040Z,104099.53
2023-03-02T10:26:16.482Z,103984.00
2023-03-02T10:28:49.908Z,103824.13
2023-03-02T10:31:25.833Z,103913.81
2023-03-02T10:33:55.275Z,104197.16
2023-03-02T10:36:26.161Z,104291.50
2023-03-02T10:38:55.361Z,104272.84
2023-03-02T10:41:27.903Z,104690.56
2023-03-02T10:44:00.359Z,105244.16
2023-03-02T10:46:28.434Z,105343.47
2023-03-02T10:49:01.227Z,105119.09
2023-03-02T10:51:30.487Z,105247.75
2023-03-02T10:54:06.090Z,105011.81
2023-03-02T10:56:34.631Z,104993.13
2023-03-02T10:59:13.493Z,104986.78
2023-03-02T11:01:41.384Z,104747.44
2023-03-02T11:04:15.962Z,104427.47
2023-03-02T11:06:43.782Z,104158.69
2023-03-02T11:09:15.965Z,103740.47
2023-03-02T11:11:53.980Z,103394.78
2023-03-02T11:14:23.093Z,103182.38
2023-03-02T11:16:52.663Z,103319.44
2023-03-02T11:19:27.357Z,102892.47
2023-03-02T11:22:01.355Z,102598.88
2023-03-02T11:24:35.701Z,102278.97
2023-03-02T11:27:09.083Z,102204.28
2023-03-02T11:29:42.703Z,102350.94
2023-03-02T11:32:17.051Z,101994.03
2023-03-02T11:34:52.397Z,101744.78
2023-03-02T11:37:23.197Z,101685.25
2023-03-02T11:40:04.040Z,101395.25
2023-03-02T11:42:35.234Z,101366.09
2023-03-02T11:45:16.587Z,101246.50
2023-03-02T11:47:57.412Z,101175.41
2023-03-02T11:50:33.588Z,101145.53
2023-03-02T11:53:04.937Z,101138.50
2023-03-02T11:55:45.549Z,101039.94
2023-03-02T11:58:19.305Z,100878.34
2023-03-02T12:00:48.640Z,100778.88
2023-03-02T12:03:25.528Z,100696.88
2023-03-02T12:06:07.258Z,100742.09
2023-03-02T12:08:39.509Z,100593.88
2023-03-02T12:11:10.103Z,100539.38
2023-03-02T12:13:40.032Z,100460.66
2023-03-02T12:16:22.133Z,100545.09
2023-03-02T12:18:50.838Z,100529.47
2023-03-02T12:21:21.400Z,100534.56
2023-03-02T12:24:03.846Z,100607.59
2023-03-02T12:26:35.795Z,100605.78
2023-03-02T12:29:07.959Z,100651.97
2023-03-02T12:31:45.273Z,100708.69
2023-03-02T12:34:36.179Z,100726.06
2023-03-02T12:37:14.787Z,100729.66
2023-03-02T12:40:26.088Z,101017.44
2023-03-02T12:43:28.946Z,101631.69
2023-03-02T12:46:26.314Z,102035.31
2023-03-02T12:49:14.553Z,102246.25
2023-03-02T12:51:50.384Z,102547.50
2023-03-02T12:54:21.379Z,102380.06
2023-03-02T12:56:49.991Z,102174.13
2023-03-02T12:59:26.153Z,101769.25
2023-03-02T13:02:05.481Z,101544.97
2023-03-02T13:04:33.512Z,101340.16
2023-03-02T13:07:01.301Z,101087.81
2023-03-02T13:09:30.747Z,101081.84
2023-03-02T13:11:59.161Z,101036.72
2023-03-02T13:14:28.753Z,101092.41
2023-03-02T13:16:59.887Z,101119.41
2023-03-02T13:19:30.561Z,101020.72
2023-03-02T13:22:00.198Z,100782.44
2023-03-02T13:24:34.421Z,100581.09
2023-03-02T13:27:07.254Z,100402.63
2023-03-02T13:29:35.490Z,100312.13
2023-03-02T13:32:19.312Z,100235.50
2023-03-02T13:34:49.590Z,100092.06
2023-03-02T13:37:22.603Z,99984.31
2023-03-02T13:39:59.624Z,99861.19
2023-03-02T13:42:30.661Z,99830.81
2023-03-02T13:44:58.437Z,99791.88
2023-03-02T13:47:26.264Z,99724.19
2023-03-02T13:49:54.151Z,99710.22
2023-03-02T13:52:28.087Z,99674.66
2023-03-02T13:54:56.103Z,99652.81
2023-03-02T13:57:30.838Z,99617.53
2023-03-02T13:59:59.493Z,99587.06
2023-03-02T14:02:29.027Z,99584.41
2023-03-02T14:04:58.236Z,99569.72
2023-03-02T14:07:26.163Z,99554.19
2023-03-02T14:09:55.920Z,99553.22
2023-03-02T14:12:28.259Z,99510.66
2023-03-02T14:14:59.378Z,99518.72
2023-03-02T14:17:27.782Z,99505.47
2023-03-02T14:19:58.183Z,99522.97
2023-03-02T14:22:29.666Z,99513.41
2023-03-02T14:24:57.529Z,99481.03
2023-03-02T14:27:30.734Z,99484.66
2023-03-02T14:29:59.002Z,99473.47
2023-03-02T14:32:26.896Z,99469.13
2023-03-02T14:34:54.682Z,99479.34
2023-03-02T14:37:28.408Z,99490.53
2023-03-02T14:39:56.774Z,99527.91
2023-03-02T14:42:25.959Z,99514.78
2023-03-02T14:44:53.765Z,99518.38
2023-03-02T14:47:22.058Z,99480.06
2023-03-02T14:49:49.903Z,99477.66
2023-03-02T14:52:23.566Z,99438.53
2023-03-02T14:54:55.168Z,99443.97
2023-03-02T14:57:26.164Z,99407.59
2023-03-02T14:59:59.768Z,99377.28
2023-03-02T15:02:27.925Z,99334.94
2023-03-02T15:04:57.044Z,99313.28
2023-03-02T15:07:26.094Z,99295.94
2023-03-02T15:09:53.891Z,99262.28
2023-03-02T15:12:21.735Z,99254.34
2023-03-02T15:14:49.477Z,99193.19
2023-03-02T15:17:18.719Z,99198.34
2023-03-02T15:19:46.781Z,99184.41
2023-03-02T15:22:14.848Z,99135.63
2023-03-02T15:24:42.701Z,99082.38
2023-03-02T15:27:10.437Z,99068.78
2023-03-02T15:29:38.294Z,99026.28
2023-03-02T15:32:07.577Z,99002.16
2023-03-02T15:34:37.026Z,98998.66
2023-03-02T15:37:04.792Z,98952.81
2023-03-02T15:39:33.364Z,98941.88
2023-03-02T15:42:01.210Z,98879.63
2023-03-02T15:44:29.748Z,98864.00
2023-03-02T15:46:59.379Z,98808.00
2023-03-02T15:49:29.418Z,98748.91
2023-03-02T15:51:59.494Z,98688.22
2023-03-02T15:54:28.534Z,98648.69
2023-03-02T15:56:56.589Z,98605.53
2023-03-02T15:59:27.482Z,98548.06
2023-03-02T16:01:59.202Z,98505.66
2023-03-02T16:04:27.595Z,98503.38
2023-03-02T16:06:56.312Z,98480.63
2023-03-02T16:09:28.876Z,98399.72
2023-03-02T16:11:57.046Z,98367.19
2023-03-02T16:14:25.017Z,98339.69
2023-03-02T16:16:53.112Z,98302.75
2023-03-02T16:19:24.300Z,98264.25
2023-03-02T16:21:52.078Z,98249.41
2023-03-02T16:24:20.095Z,98234.81
2023-03-02T16:26:50.869Z,98208.19
2023-03-02T16:29:18.702Z,98207.34
2023-03-02T16:31:47.409Z,98215.94
2023-03-02T16:34:15.737Z,98197.78
2023-03-02T16:36:43.641Z,98167.78
2023-03-02T16:39:13.038Z,98182.50
2023-03-02T16:41:42.023Z,98144.59
2023-03-02T16:44:13.566Z,98098.41
2023-03-02T16:46:43.451Z,98082.88
2023-03-02T16:49:12.266Z,98066.50
2023-03-02T16:51:40.508Z,98079.53
2023-03-02T16:54:08.582Z,98050.13
2023-03-02T16:56:36.414Z,98138.38
2023-03-02T16:59:04.189Z,98203.88
2023-03-02T17:01:33.320Z,98272.34
2023-03-02T17:04:02.789Z,98263.00
2023-03-02T17:06:32.156Z,98241.34
2023-03-02T17:08:59.892Z,98230.25
2023-03-02T17:11:28.330Z,98229.56
2023-03-02T17:13:56.159Z,98267.31
2023-03-02T17:16:24.863Z,98291.94
2023-03-02T17:18:53.963Z,98331.63
2023-03-02T17:21:25.123Z,98301.50
2023-03-02T17:23:52.972Z,98287.75
2023-03-02T17:26:21.338Z,98249.84
2023-03-02T17:28:49.477Z,98224.97
2023-03-02T17:31:17.249Z,98243.16
2023-03-02T17:33:45.065Z,98255.84
2023-03-02T17:36:15.392Z,98284.28
2023-03-02T17:38:43.539Z,98282.63
2023-03-02T17:41:12.301Z,98271.38
2023-03-02T17:43:41.633Z,98238.03
2023-03-02T17:46:15.202Z,98286.94
2023-03-02T17:48:43.828Z,98288.47
2023-03-02T17:51:14.827Z,98249.22
2023-03-02T17:53:44.705Z,98291.09
2023-03-02T17:56:13.365Z,98327.06
2023-03-02T17:58:45.113Z,98302.22
2023-03-02T18:01:15.846Z,98239.81
2023-03-02T18:03:45.607Z,98200.97
2023-03-02T18:06:13.728Z,98183.63
2023-03-02T18:08:41.835Z,98188.78
2023-03-02T18:11:11.260Z,98212.22
2023-03-02T18:13:40.172Z,98178.50
2023-03-02T18:16:09.035Z,98157.25
2023-03-02T18:18:37.185Z,98184.59
2023-03-02T18:21:05.962Z,98153.53
2023-03-02T18:23:34.262Z,98124.50
2023-03-02T18:26:02.037Z,98097.84
2023-03-02T18:28:31.304Z,98045.44
2023-03-02T18:31:00.093Z,97992.44
2023-03-02T18:33:28.414Z,97892.38
2023-03-02T18:35:57.302Z,97864.66
2023-03-02T18:38:30.623Z,97852.06
2023-03-02T18:40:59.564Z,97872.16
2023-03-02T18:43:28.563Z,97826.03
2023-03-02T18:45:58.196Z,97819.94
2023-03-02T18:48:26.158Z,97855.41
2023-03-02T18:50:53.972Z,97859.13
2023-03-02T18:53:22.049Z,97864.41
2023-03-02T18:55:50.678Z,97786.41
2023-03-02T18:58:20.222Z,97798.44
2023-03-02T19:00:49.199Z,97874.66
2023-03-02T19:03:18.829Z,97895.16
2023-03-02T19:05:46.987Z,97889.88
2023-03-02T19:08:14.946Z,97937.16
2023-03-02T19:10:42.932Z,97998.13
2023-03-02T19:13:11.749Z,98020.59
2023-03-02T19:15:40.627Z,98015.47
2023-03-02T19:18:08.827Z,98007.16
2023-03-02T19:20:38.115Z,98036.72
2023-03-02T19:23:06.094Z,98054.59
2023-03-02T19:25:34.905Z,98066.81
2023-03-02T19:28:02.862Z,98096.63
2023-03-02T19:30:36.660Z,98126.72
2023-03-02T19:33:07.316Z,98188.63
2023-03-02T19:35:37.594Z,98192.94
2023-03-02T19:38:05.739Z,98236.66
2023-03-02T19:40:34.562Z,98253.91
2023-03-02T19:43:03.082Z,98231.66
2023-03-02T19:45:34.994Z,98213.34
2023-03-02T19:48:05.883Z,98260.56
2023-03-02T19:50:34.200Z,98217.50
2023-03-02T19:53:03.287Z,98216.81
2023-03-02T19:55:31.934Z,98150.63
2023-03-02T19:58:02.062Z,98148.97
2023-03-02T20:00:32.364Z,98128.38
2023-03-02T20:03:00.503Z,98107.84
2023-03-02T20:05:28.849Z,98062.22
2023-03-02T20:07:57.040Z,98032.97
2023-03-02T20:10:32.534Z,98003.97
2023-03-02T20:13:00.948Z,97988.59
2023-03-02T20:15:29.994Z,97985.13
2023-03-02T20:17:59.391Z,97996.22
2023-03-02T20:20:28.131Z,97973.88
2023-03-02T20:22:56.042Z,97943.13
2023-03-02T20:25:24.184Z,97951.72
2023-03-02T20:27:53.936Z,97866.34
2023-03-02T20:30:27.642Z,97871.06
2023-03-02T20:32:56.778Z,97820.38
2023-03-02T20:35:25.356Z,97836.72
2023-03-02T20:37:55.452Z,97806.53
2023-03-02T20:40:23.954Z,97786.81
2023-03-02T20:42:53.462Z,97804.03
2023-03-02T20:45:21.765Z,97782.69
2023-03-02T20:47:50.003Z,97840.03
2023-03-02T20:50:23.433Z,97860.81
2023-03-02T20:52:51.289Z,97857.06
2023-03-02T20:55:19.952Z,97866.47
2023-03-02T20:57:48.613Z,97869.13
2023-03-02T21:00:22.612Z,97862.19
2023-03-02T21:02:50.663Z,97845.28
2023-03-02T21:05:19.715Z,97832.28
2023-03-02T21:07:48.547Z,97800.72
2023-03-02T21:10:18.741Z,97798.75
2023-03-02T21:12:49.040Z,97783.38
2023-03-02T21:15:19.083Z,97774.78
2023-03-02T21:17:47.285Z,97791.16
2023-03-02T21:20:18.441Z,97804.03
2023-03-02T21:22:46.479Z,97773.94
2023-03-02T21:25:17.707Z,97758.59
2023-03-02T21:27:45.873Z,97761.91
2023-03-02T21:30:17.593Z,97809.84
2023-03-02T21:32:46.923Z,97836.44
2023-03-02T21:35:16.486Z,97831.44
2023-03-02T21:37:44.598Z,97831.44
2023-03-02T21:40:16.625Z,97857.91
2023-03-02T21:42:44.718Z,97851.94
2023-03-02T21:45:13.365Z,97823.66
2023-03-02T21:47:41.816Z,97881.03
2023-03-02T21:50:15.486Z,97894.63
2023-03-02T21:52:43.459Z,97891.28
2023-03-02T21:55:13.242Z,97892.25
2023-03-02T21:57:41.312Z,97894.75
2023-03-02T22:00:10.899Z,97887.13
2023-03-02T22:02:38.945Z,97831.44
2023-03-02T22:05:07.568Z,97858.59
2023-03-02T22:07:36.781Z,97888.66
2023-03-02T22:10:05.180Z,97898.94
2023-03-02T22:12:33.284Z,97898.09
2023-03-02T22:15:04.217Z,97909.19
2023-03-02T22:17:34.600Z,97868.97
2023-03-02T22:20:02.347Z,97861.22
2023-03-02T22:22:31.136Z,97843.34
2023-03-02T22:25:00.901Z,97839.91
2023-03-02T22:27:30.036Z,97822.59
2023-03-02T22:30:00.642Z,97815.81
2023-03-02T22:32:30.383Z,97802.09
2023-03-02T22:34:59.693Z,97749.88
2023-03-02T22:37:29.195Z,97758.31
2023-03-02T22:39:58.966Z,97738.78
2023-03-02T22:42:31.269Z,97757.75
2023-03-02T22:45:06.931Z,97767.72
2023-03-02T22:47:34.702Z,97767.72
2023-03-02T22:50:19.307Z,97782.44
2023-03-02T22:52:47.100Z,97797.94
2023-03-02T22:55:36.112Z,97814.97
2023-03-02T22:58:28.210Z,97845.56
2023-03-02T23:00:56.998Z,97864.13
2023-03-02T23:03:28.714Z,97885.19
2023-03-02T23:05:56.768Z,97868.84
2023-03-02T23:08:26.900Z,97872.16
2023-03-02T23:10:57.707Z,97855.00
2023-03-02T23:13:40.713Z,97844.75
2023-03-02T23:16:18.161Z,97890.22
2023-03-02T23:18:47.872Z,97860.25
2023-03-02T23:21:22.185Z,97868.00
2023-03-02T23:23:50.721Z,97888.66
2023-03-02T23:26:19.767Z,97869.66
2023-03-02T23:28:51.621Z,97870.38
2023-03-02T23:31:19.789Z,97870.63
2023-03-02T23:33:47.990Z,97860.25
2023-03-02T23:36:16.373Z,97827.16
2023-03-02T23:38:44.430Z,97838.38
2023-03-02T23:41:12.238Z,97838.78
2023-03-02T23:43:40.048Z,97860.25
2023-03-02T23:46:13.874Z,97843.09
2023-03-02T23:48:42.571Z,97822.72
2023-03-02T23:51:10.702Z,97786.59
2023-03-02T23:53:39.063Z,97779.66
2023-03-02T23:56:07.496Z,97760.66
2023-03-02T23:58:35.302Z,97721.78
